Time;durP1;ratioP1;P1;durP2;ratioP2;P2;SDS_P1;SDS_P2;PMS_P1;PMS_P2;Temp;Humidity;BMP_temperature;BMP_pressure;BME280_temperature;BME280_humidity;BME280_pressure;Samples;Min_cycle;Max_cycle;Signal;HPM_P1;HPM_P2
2023/03/04 00:00:07;;;;;;;125.45;52.35;;;5.40;54.30;;;;;;4981727;28;20050;-50
2023/03/04 00:02:34;;;;;;;134.35;52.28;;;5.40;54.30;;;;;;4973962;28;20050;-51
2023/03/04 00:05:02;;;;;;;122.25;52.90;;;5.40;54.30;;;;;;4978636;28;20066;-48
2023/03/04 00:07:29;;;;;;;127.18;54.28;;;5.40;54.30;;;;;;4984232;28;20495;-51
2023/03/04 00:09:56;;;;;;;130.68;54.05;;;5.40;54.30;;;;;;4982503;28;20046;-49
2023/03/04 00:12:24;;;;;;;146.18;59.55;;;5.40;54.30;;;;;;4982759;28;20054;-46
2023/03/04 00:14:52;;;;;;;132.63;54.45;;;5.40;54.30;;;;;;4976965;28;20506;-46
2023/03/04 00:17:20;;;;;;;132.50;54.83;;;5.40;54.40;;;;;;4974673;28;20050;-46
2023/03/04 00:19:47;;;;;;;122.65;53.55;;;5.40;54.30;;;;;;4983376;28;20065;-48
2023/03/04 00:22:14;;;;;;;157.13;60.53;;;5.40;54.40;;;;;;4982902;28;20054;-46
2023/03/04 00:24:41;;;;;;;133.82;55.22;;;5.40;54.50;;;;;;4971830;28;20058;-49
2023/03/04 00:27:09;;;;;;;126.38;52.17;;;5.40;54.50;;;;;;4983424;28;20058;-50
2023/03/04 00:29:36;;;;;;;134.55;56.42;;;5.40;54.50;;;;;;4981397;28;20525;-48
2023/03/04 00:32:05;;;;;;;151.50;62.33;;;5.40;54.50;;;;;;4983649;28;20065;-51
2023/03/04 00:34:32;;;;;;;159.32;62.55;;;5.40;54.50;;;;;;4978014;28;20069;-48
2023/03/04 00:37:00;;;;;;;144.75;59.75;;;5.40;54.60;;;;;;4981392;28;20046;-47
2023/03/04 00:39:27;;;;;;;159.60;62.92;;;5.40;54.50;;;;;;4977341;28;20058;-50
2023/03/04 00:41:56;;;;;;;168.57;65.32;;;5.40;54.50;;;;;;4973558;28;20054;-50
2023/03/04 00:44:23;;;;;;;155.63;64.38;;;5.40;54.50;;;;;;4967315;28;20057;-52
2023/03/04 00:46:50;;;;;;;140.73;58.90;;;5.40;54.60;;;;;;4972674;28;20516;-49
2023/03/04 00:49:19;;;;;;;136.40;56.20;;;5.30;54.50;;;;;;4973675;28;20057;-51
2023/03/04 00:51:46;;;;;;;154.02;62.45;;;5.30;54.60;;;;;;4979356;28;20054;-46
2023/03/04 00:54:13;;;;;;;157.98;63.72;;;5.30;54.60;;;;;;4977950;28;20058;-49
2023/03/04 00:56:41;;;;;;;164.63;64.53;;;5.30;54.70;;;;;;4973216;28;20398;-49
2023/03/04 00:59:08;;;;;;;172.75;66.60;;;5.30;54.80;;;;;;4980912;28;20069;-50
2023/03/04 01:01:35;;;;;;;160.38;62.60;;;5.30;54.80;;;;;;4978241;28;20383;-50
2023/03/04 01:04:02;;;;;;;159.43;61.90;;;5.30;54.80;;;;;;4971087;28;20059;-50
2023/03/04 01:06:31;;;;;;;158.00;64.43;;;5.30;54.90;;;;;;4975766;28;20506;-50
2023/03/04 01:08:58;;;;;;;161.00;62.85;;;5.20;55.00;;;;;;4978736;28;20051;-50
2023/03/04 01:11:25;;;;;;;136.20;56.97;;;5.30;55.00;;;;;;4977636;28;20063;-50
2023/03/04 01:13:53;;;;;;;159.93;63.33;;;5.20;54.90;;;;;;4969805;28;20058;-50
2023/03/04 01:16:20;;;;;;;138.13;57.40;;;5.30;55.10;;;;;;4976401;28;20529;-49
2023/03/04 01:18:47;;;;;;;136.52;54.20;;;5.30;55.10;;;;;;4974116;28;20058;-48
2023/03/04 01:21:15;;;;;;;152.10;58.38;;;5.30;55.00;;;;;;4981333;28;20061;-49
2023/03/04 01:23:43;;;;;;;151.50;63.28;;;5.30;55.10;;;;;;4980125;28;20050;-48
2023/03/04 01:26:11;;;;;;;164.13;65.88;;;5.20;55.60;;;;;;4970777;28;20058;-49
2023/03/04 01:28:38;;;;;;;147.32;57.38;;;5.30;55.10;;;;;;4981318;28;20054;-50
2023/03/04 01:31:05;;;;;;;142.15;59.53;;;5.30;55.20;;;;;;4980444;28;20513;-47
2023/03/04 01:33:33;;;;;;;156.23;61.95;;;5.30;55.20;;;;;;4979633;28;20495;-49
2023/03/04 01:36:00;;;;;;;163.05;62.33;;;5.30;55.30;;;;;;4982645;28;20069;-50
2023/03/04 01:38:27;;;;;;;131.13;53.80;;;5.30;55.30;;;;;;4983404;28;20058;-50
2023/03/04 01:40:56;;;;;;;129.07;52.83;;;5.20;55.30;;;;;;4981090;28;20438;-50
2023/03/04 01:43:26;;;;;;;137.35;54.47;;;5.20;55.30;;;;;;4980720;28;20054;-47
2023/03/04 01:45:55;;;;;;;147.30;54.35;;;5.20;55.30;;;;;;4974177;28;20400;-49
2023/03/04 01:48:25;;;;;;;146.57;56.88;;;5.30;55.50;;;;;;4982002;28;20065;-47
2023/03/04 01:50:53;;;;;;;130.13;52.97;;;5.30;55.60;;;;;;4981019;28;20050;-49
2023/03/04 01:53:22;;;;;;;121.50;49.85;;;5.30;55.60;;;;;;4981510;28;20490;-47
2023/03/04 01:55:51;;;;;;;121.43;50.08;;;5.30;55.60;;;;;;4974946;28;20054;-48
2023/03/04 01:58:20;;;;;;;122.93;50.03;;;5.30;55.70;;;;;;4979869;28;20058;-49
2023/03/04 02:00:48;;;;;;;131.98;51.42;;;5.30;55.70;;;;;;4982256;28;20057;-50
2023/03/04 02:03:19;;;;;;;121.55;49.65;;;5.30;55.70;;;;;;4980606;23;20062;-84
2023/03/04 02:05:49;;;;;;;114.25;48.38;;;5.40;55.80;;;;;;4946469;28;20055;-84
2023/03/04 02:08:19;;;;;;;104.38;44.58;;;5.40;55.70;;;;;;4960031;28;20046;-84
2023/03/04 02:10:47;;;;;;;119.63;50.35;;;5.40;55.80;;;;;;4958119;28;20058;-84
2023/03/04 02:13:15;;;;;;;117.28;48.38;;;5.40;55.70;;;;;;4958897;28;20521;-84
2023/03/04 02:15:45;;;;;;;119.93;49.88;;;5.50;55.70;;;;;;4959728;28;20047;-84
2023/03/04 02:18:16;;;;;;;128.05;51.15;;;5.50;55.70;;;;;;4958328;28;20051;-84
2023/03/04 02:20:51;;;;;;;121.15;48.30;;;5.50;55.70;;;;;;4957835;28;20058;-84
2023/03/04 02:23:24;;;;;;;132.45;53.45;;;5.50;55.70;;;;;;4961072;28;20070;-84
2023/03/04 02:26:08;;;;;;;129.68;50.47;;;5.60;55.80;;;;;;4965488;28;20055;-84
2023/03/04 02:28:35;;;;;;;125.57;52.05;;;5.60;55.70;;;;;;4947135;28;20047;-84
2023/03/04 02:31:03;;;;;;;111.20;46.25;;;5.60;55.70;;;;;;4960762;28;20414;-84
2023/03/04 02:33:32;;;;;;;123.28;53.28;;;5.60;55.70;;;;;;4963588;28;20062;-84
2023/03/04 02:35:59;;;;;;;123.45;51.45;;;5.60;56.20;;;;;;4953579;28;20526;-84
2023/03/04 02:38:26;;;;;;;108.80;44.50;;;5.60;55.80;;;;;;4946756;28;20051;-84
2023/03/04 02:40:55;;;;;;;116.13;46.78;;;5.60;55.70;;;;;;4959250;28;20507;-84
2023/03/04 02:43:24;;;;;;;113.50;46.03;;;5.60;55.80;;;;;;4961116;28;20061;-84
2023/03/04 02:45:51;;;;;;;105.57;44.33;;;5.60;55.80;;;;;;4960554;28;20058;-84
2023/03/04 02:48:22;;;;;;;100.63;43.10;;;5.60;55.80;;;;;;4956213;28;20070;-84
2023/03/04 02:50:53;;;;;;;111.38;45.72;;;5.60;55.80;;;;;;4956402;28;20062;-84
2023/03/04 02:53:21;;;;;;;113.03;44.72;;;5.70;56.40;;;;;;4960119;28;20487;-84
2023/03/04 02:55:49;;;;;;;105.00;43.10;;;5.70;55.80;;;;;;4963884;28;20059;-84
2023/03/04 02:58:16;;;;;;;105.88;43.55;;;5.70;55.80;;;;;;4951977;28;20053;-84
2023/03/04 03:00:45;;;;;;;96.47;40.90;;;5.70;55.80;;;;;;4962255;28;20055;-84
2023/03/04 03:03:12;;;;;;;129.57;51.47;;;5.70;55.90;;;;;;4961584;28;20074;-84
2023/03/04 03:05:40;;;;;;;98.25;41.42;;;5.70;55.90;;;;;;4954637;28;20061;-85
2023/03/04 03:08:07;;;;;;;102.53;42.50;;;5.70;55.80;;;;;;4958423;28;20055;-84
2023/03/04 03:10:34;;;;;;;120.15;47.13;;;5.70;55.80;;;;;;4959580;28;20486;-84
2023/03/04 03:13:02;;;;;;;100.72;44.00;;;5.70;55.80;;;;;;4960304;28;20055;-84
2023/03/04 03:15:29;;;;;;;89.05;37.90;;;5.70;55.80;;;;;;4948921;28;20065;-84
2023/03/04 03:17:58;;;;;;;92.32;37.90;;;5.80;55.80;;;;;;4960640;28;20522;-84
2023/03/04 03:20:25;;;;;;;110.03;43.17;;;5.70;55.80;;;;;;4958890;28;20419;-84
2023/03/04 03:22:52;;;;;;;122.75;48.22;;;5.80;55.90;;;;;;4961219;28;20065;-84
2023/03/04 03:25:20;;;;;;;113.90;44.63;;;5.80;55.80;;;;;;4954863;28;20061;-84
2023/03/04 03:27:47;;;;;;;108.25;42.65;;;5.80;55.80;;;;;;4965723;28;20053;-84
2023/03/04 03:30:15;;;;;;;102.72;43.53;;;5.80;55.80;;;;;;4963859;28;20059;-84
2023/03/04 03:32:43;;;;;;;113.90;45.28;;;5.80;55.80;;;;;;4964382;28;20590;-84
2023/03/04 03:35:12;;;;;;;116.13;45.60;;;5.70;55.80;;;;;;4952620;28;20688;-84
2023/03/04 03:37:39;;;;;;;114.50;44.20;;;5.70;55.90;;;;;;4963040;28;20051;-84
2023/03/04 03:40:08;;;;;;;107.80;43.83;;;5.70;55.80;;;;;;4962790;28;20406;-84
2023/03/04 03:42:35;;;;;;;101.20;40.15;;;5.70;55.90;;;;;;4965880;28;20082;-84
2023/03/04 03:45:03;;;;;;;102.65;40.88;;;5.70;55.90;;;;;;4967712;28;20054;-84
2023/03/04 03:47:30;;;;;;;87.93;36.80;;;5.70;56.00;;;;;;4963432;28;20054;-84
2023/03/04 03:49:58;;;;;;;81.50;35.13;;;5.70;56.10;;;;;;4955543;28;20054;-84
2023/03/04 03:52:26;;;;;;;95.15;36.78;;;5.70;56.20;;;;;;4969814;28;20046;-84
2023/03/04 03:54:54;;;;;;;87.03;36.30;;;5.70;56.20;;;;;;4961054;28;20414;-84
2023/03/04 03:57:21;;;;;;;95.20;37.85;;;5.70;56.20;;;;;;4964380;28;20054;-84
2023/03/04 03:59:48;;;;;;;104.22;41.67;;;5.70;56.20;;;;;;4964528;28;20058;-85
2023/03/04 04:02:15;;;;;;;94.75;39.28;;;5.70;56.20;;;;;;4964059;28;20057;-84
2023/03/04 04:04:42;;;;;;;92.45;36.90;;;5.70;56.10;;;;;;4955596;28;20046;-85
2023/03/04 04:07:10;;;;;;;85.03;33.08;;;5.70;56.10;;;;;;4969357;28;20540;-85
2023/03/04 04:09:38;;;;;;;79.05;30.48;;;5.70;56.10;;;;;;4963458;28;20502;-85
2023/03/04 04:12:06;;;;;;;69.43;28.92;;;5.70;56.10;;;;;;4963653;28;20058;-85
2023/03/04 04:14:34;;;;;;;75.13;29.88;;;5.70;56.10;;;;;;4951960;28;20051;-85
2023/03/04 04:17:01;;;;;;;68.47;28.85;;;5.80;56.20;;;;;;4964908;28;20051;-85
2023/03/04 04:19:29;;;;;;;66.30;27.15;;;5.80;56.20;;;;;;4957250;28;20062;-86
2023/03/04 04:21:56;;;;;;;65.38;26.98;;;5.80;56.20;;;;;;4970824;28;20051;-86
2023/03/04 04:24:23;;;;;;;65.70;27.75;;;5.80;56.20;;;;;;4968561;28;20054;-85
2023/03/04 04:26:52;;;;;;;66.35;27.77;;;5.80;56.10;;;;;;4963071;28;20422;-85
2023/03/04 04:29:19;;;;;;;61.30;25.10;;;5.90;56.20;;;;;;4960381;28;20058;-85
2023/03/04 04:31:47;;;;;;;62.25;24.38;;;5.90;56.10;;;;;;4954190;28;20058;-85
2023/03/04 04:34:14;;;;;;;60.42;24.67;;;6.00;56.10;;;;;;4957131;28;20059;-85
2023/03/04 04:36:41;;;;;;;62.85;24.55;;;6.00;56.10;;;;;;4944364;28;20495;-85
2023/03/04 04:39:09;;;;;;;64.75;25.27;;;6.00;56.10;;;;;;4959122;28;20051;-85
2023/03/04 04:41:38;;;;;;;54.63;23.98;;;6.00;56.00;;;;;;4968890;28;20055;-86
2023/03/04 04:44:07;;;;;;;60.15;25.73;;;6.10;56.00;;;;;;4961433;28;20070;-87
2023/03/04 04:46:35;;;;;;;69.13;26.70;;;6.10;56.00;;;;;;4952845;28;20521;-86
2023/03/04 04:49:02;;;;;;;63.17;25.42;;;6.10;55.90;;;;;;4967543;28;20054;-86
2023/03/04 04:51:30;;;;;;;66.55;25.85;;;6.10;55.80;;;;;;4957519;28;20418;-87
2023/03/04 04:53:58;;;;;;;77.43;30.65;;;6.10;55.80;;;;;;4961507;28;20522;-87
2023/03/04 04:56:26;;;;;;;75.13;30.70;;;6.10;55.80;;;;;;4955833;28;20055;-86
2023/03/04 04:58:55;;;;;;;73.75;29.08;;;6.10;55.70;;;;;;4962382;28;20067;-87
2023/03/04 05:01:25;;;;;;;60.15;25.20;;;6.10;55.70;;;;;;4962311;28;20062;-87
2023/03/04 05:03:54;;;;;;;67.25;27.58;;;6.10;55.70;;;;;;4963254;28;20059;-86
2023/03/04 05:06:23;;;;;;;55.30;24.48;;;6.10;55.70;;;;;;4962009;28;20046;-86
2023/03/04 05:08:51;;;;;;;55.17;22.98;;;6.10;55.70;;;;;;4967735;28;20069;-86
2023/03/04 05:11:19;;;;;;;59.55;24.13;;;6.10;55.70;;;;;;4966413;28;20411;-87
2023/03/04 05:13:47;;;;;;;59.17;22.77;;;6.10;55.80;;;;;;4961858;28;20054;-85
2023/03/04 05:16:15;;;;;;;75.05;25.27;;;6.10;55.80;;;;;;4961538;28;20057;-87
2023/03/04 05:18:44;;;;;;;54.55;21.52;;;6.10;55.80;;;;;;4960536;28;20062;-86
2023/03/04 05:21:11;;;;;;;67.35;23.65;;;6.10;55.80;;;;;;4961781;28;20533;-86
2023/03/04 05:23:40;;;;;;;55.78;21.58;;;6.20;55.90;;;;;;4961767;28;20058;-85
2023/03/04 05:26:09;;;;;;;50.70;21.27;;;6.20;55.90;;;;;;4960130;28;20545;-86
2023/03/04 05:28:37;;;;;;;59.42;21.88;;;6.20;55.90;;;;;;4966860;28;20047;-86
2023/03/04 05:31:05;;;;;;;53.55;21.75;;;6.20;55.90;;;;;;4963576;28;20059;-86
2023/03/04 05:33:32;;;;;;;58.67;22.50;;;6.20;55.90;;;;;;4962163;28;21034;-84
2023/03/04 05:36:01;;;;;;;48.25;19.67;;;6.20;55.90;;;;;;4960815;28;20057;-84
2023/03/04 05:38:28;;;;;;;48.88;20.33;;;6.20;55.90;;;;;;4955525;28;20051;-84
2023/03/04 05:40:58;;;;;;;53.63;21.00;;;6.20;55.90;;;;;;4958860;28;20046;-85
2023/03/04 05:43:26;;;;;;;67.68;24.58;;;6.20;55.90;;;;;;4955260;28;20061;-89
2023/03/04 05:45:53;;;;;;;56.72;23.50;;;6.20;55.90;;;;;;4951307;28;20070;-84
2023/03/04 05:48:22;;;;;;;66.72;30.50;;;6.20;55.80;;;;;;4961303;28;20063;-84
2023/03/04 05:50:53;;;;;;;69.72;26.73;;;6.20;55.70;;;;;;4961585;28;20062;-84
2023/03/04 05:53:22;;;;;;;73.20;28.02;;;6.20;55.70;;;;;;4967177;28;20060;-84
2023/03/04 05:55:50;;;;;;;74.03;29.13;;;6.10;55.80;;;;;;4949700;28;20074;-88
2023/03/04 05:58:18;;;;;;;73.93;28.65;;;6.10;55.80;;;;;;4964861;28;20059;-90
2023/03/04 06:00:45;;;;;;;58.85;25.17;;;6.00;55.80;;;;;;4962706;28;20054;-83
2023/03/04 06:03:15;;;;;;;66.18;26.55;;;6.00;55.90;;;;;;4960534;28;20073;-83
2023/03/04 06:05:43;;;;;;;75.13;29.35;;;6.00;56.00;;;;;;4959708;28;20491;-84
2023/03/04 06:08:10;;;;;;;83.93;31.13;;;6.00;56.10;;;;;;4946738;28;20055;-84
2023/03/04 06:10:41;;;;;;;74.57;26.27;;;6.00;56.10;;;;;;4960189;28;20050;-84
2023/03/04 06:13:09;;;;;;;64.57;25.80;;;6.00;56.30;;;;;;4956152;28;20065;-83
2023/03/04 06:15:36;;;;;;;61.63;22.67;;;5.90;56.30;;;;;;4955646;28;20665;-84
2023/03/04 06:18:03;;;;;;;67.50;24.13;;;5.90;56.40;;;;;;4958677;28;20066;-84
2023/03/04 06:20:31;;;;;;;62.05;23.90;;;6.00;56.50;;;;;;4960106;28;20050;-84
2023/03/04 06:22:58;;;;;;;62.75;23.45;;;6.00;56.60;;;;;;4956746;28;20047;-82
2023/03/04 06:25:25;;;;;;;60.17;23.20;;;6.00;56.60;;;;;;4959032;28;20050;-84
2023/03/04 06:27:54;;;;;;;66.35;23.55;;;6.00;56.60;;;;;;4959132;28;20066;-84
2023/03/04 06:30:21;;;;;;;61.75;22.73;;;6.00;57.10;;;;;;4958653;28;20709;-84
2023/03/04 06:32:49;;;;;;;49.58;18.83;;;6.00;56.60;;;;;;4958497;28;20051;-84
2023/03/04 06:35:16;;;;;;;57.30;19.52;;;6.00;56.50;;;;;;4957794;28;20510;-84
2023/03/04 06:37:44;;;;;;;55.08;17.40;;;6.00;56.50;;;;;;4955937;28;20070;-84
2023/03/04 06:40:12;;;;;;;53.70;19.25;;;6.00;56.40;;;;;;4961421;28;20059;-84
2023/03/04 06:42:39;;;;;;;52.38;19.83;;;6.10;56.40;;;;;;4966085;28;20062;-84
2023/03/04 06:45:09;;;;;;;52.60;19.40;;;6.10;56.40;;;;;;4960701;28;20121;-89
2023/03/04 06:47:37;;;;;;;54.92;19.92;;;6.10;56.40;;;;;;4960880;28;20057;-84
2023/03/04 06:50:05;;;;;;;64.47;18.40;;;6.10;56.30;;;;;;4959933;28;20062;-84
2023/03/04 06:52:32;;;;;;;49.35;18.25;;;6.20;56.40;;;;;;4956197;28;20399;-87
2023/03/04 06:55:03;;;;;;;52.80;18.15;;;6.20;56.30;;;;;;4958679;28;20051;-84
2023/03/04 06:57:30;;;;;;;45.15;17.38;;;6.20;56.30;;;;;;4955520;28;20058;-83
2023/03/04 06:59:57;;;;;;;45.42;16.90;;;6.20;56.20;;;;;;4957682;28;20047;-83
2023/03/04 07:02:26;;;;;;;52.08;18.58;;;6.20;56.20;;;;;;4962577;28;20146;-84
2023/03/04 07:04:53;;;;;;;49.70;18.13;;;6.30;56.20;;;;;;4963779;28;20054;-85
2023/03/04 07:07:20;;;;;;;67.00;20.10;;;6.30;56.10;;;;;;4966028;28;20081;-84
2023/03/04 07:09:48;;;;;;;56.42;19.38;;;6.30;56.10;;;;;;4962082;28;20545;-84
2023/03/04 07:12:15;;;;;;;59.83;21.25;;;6.40;56.10;;;;;;4957377;28;20057;-84
2023/03/04 07:14:42;;;;;;;60.83;22.10;;;6.40;56.10;;;;;;4969982;28;20050;-84
2023/03/04 07:17:09;;;;;;;66.25;21.75;;;6.40;56.10;;;;;;4961507;28;20054;-84
2023/03/04 07:19:38;;;;;;;67.20;23.75;;;6.40;56.10;;;;;;4962902;28;20135;-83
2023/03/04 07:22:05;;;;;;;63.33;23.50;;;6.40;56.10;;;;;;4965566;28;20506;-84
2023/03/04 07:24:33;;;;;;;51.38;20.33;;;6.50;56.10;;;;;;4969214;28;20680;-83
2023/03/04 07:27:00;;;;;;;61.40;24.33;;;6.50;56.10;;;;;;4964500;28;20066;-83
2023/03/04 07:29:27;;;;;;;59.25;22.60;;;6.50;56.10;;;;;;4956377;28;20058;-83
2023/03/04 07:31:55;;;;;;;71.22;27.65;;;6.50;56.00;;;;;;4961805;28;20058;-84
2023/03/04 07:34:22;;;;;;;85.88;28.38;;;6.60;56.00;;;;;;4964542;28;20065;-84
2023/03/04 07:36:51;;;;;;;72.97;26.58;;;6.60;56.00;;;;;;4964413;28;20059;-84
2023/03/04 07:39:18;;;;;;;69.60;25.15;;;6.60;56.00;;;;;;4951557;28;20050;-83
2023/03/04 07:41:45;;;;;;;71.72;24.50;;;6.60;56.00;;;;;;4954995;28;20066;-85
2023/03/04 07:44:13;;;;;;;64.15;24.98;;;6.60;55.90;;;;;;4955317;28;20059;-83
2023/03/04 07:46:40;;;;;;;69.25;24.30;;;6.60;55.90;;;;;;4957078;28;20061;-84
2023/03/04 07:49:07;;;;;;;66.05;24.38;;;6.70;56.00;;;;;;4959852;28;20055;-84
2023/03/04 07:51:36;;;;;;;66.45;25.25;;;6.60;56.00;;;;;;4951055;28;20689;-83
2023/03/04 07:54:04;;;;;;;71.07;25.10;;;6.70;56.10;;;;;;4956956;28;20449;-84
2023/03/04 07:56:33;;;;;;;70.60;26.30;;;6.70;56.00;;;;;;4953999;28;20054;-82
2023/03/04 07:59:01;;;;;;;63.65;24.45;;;6.70;56.00;;;;;;4957231;28;20066;-85
2023/03/04 08:01:30;;;;;;;74.97;24.55;;;6.70;56.10;;;;;;4950965;28;20051;-84
2023/03/04 08:03:57;;;;;;;52.90;21.45;;;6.70;56.00;;;;;;4952372;28;20055;-82
2023/03/04 08:06:25;;;;;;;54.90;19.73;;;6.70;56.00;;;;;;4952561;28;20057;-81
2023/03/04 08:08:57;;;;;;;52.80;20.30;;;6.70;56.00;;;;;;4954802;28;20047;-82
2023/03/04 08:11:27;;;;;;;56.33;20.45;;;6.80;56.10;;;;;;4965406;28;20414;-82
2023/03/04 08:13:54;;;;;;;55.95;22.80;;;6.80;56.00;;;;;;4950491;28;20522;-82
2023/03/04 08:16:24;;;;;;;60.00;22.02;;;6.80;56.10;;;;;;4955028;28;20069;-84
2023/03/04 08:18:55;;;;;;;63.58;22.58;;;6.80;56.00;;;;;;4957193;28;20062;-85
2023/03/04 08:21:24;;;;;;;50.50;21.63;;;6.80;56.00;;;;;;4951156;28;20054;-82
2023/03/04 08:23:52;;;;;;;56.17;22.02;;;6.90;56.00;;;;;;4950821;28;20074;-83
2023/03/04 08:26:23;;;;;;;70.22;24.35;;;6.90;56.00;;;;;;4957633;28;20061;-83
2023/03/04 08:28:53;;;;;;;57.38;22.38;;;6.90;55.90;;;;;;4956530;28;20055;-82
2023/03/04 08:31:21;;;;;;;57.08;19.77;;;6.90;55.90;;;;;;4958359;28;20055;-82
2023/03/04 08:33:50;;;;;;;68.25;21.45;;;6.90;55.90;;;;;;4959449;28;20051;-82
2023/03/04 08:36:17;;;;;;;62.40;23.40;;;7.00;55.90;;;;;;4957990;28;20051;-82
2023/03/04 08:38:44;;;;;;;61.47;22.50;;;7.00;55.90;;;;;;4953715;28;20059;-82
2023/03/04 08:41:12;;;;;;;62.33;22.05;;;7.00;55.90;;;;;;4953758;28;20043;-83
2023/03/04 08:43:39;;;;;;;57.60;22.65;;;7.00;55.80;;;;;;4956901;28;20054;-82
2023/03/04 08:46:08;;;;;;;57.75;22.20;;;7.00;55.90;;;;;;4955742;28;20050;-82
2023/03/04 08:48:37;;;;;;;58.75;21.25;;;7.00;55.80;;;;;;4961408;28;20058;-82
2023/03/04 08:51:08;;;;;;;58.55;21.00;;;7.00;55.90;;;;;;4951882;28;20414;-83
2023/03/04 08:53:36;;;;;;;65.80;21.38;;;7.00;55.90;;;;;;4958077;28;20046;-82
2023/03/04 08:56:04;;;;;;;45.17;18.38;;;7.10;55.90;;;;;;4949300;28;20063;-82
2023/03/04 08:58:32;;;;;;;54.63;19.50;;;7.10;56.00;;;;;;4952348;28;20057;-82
2023/03/04 09:01:01;;;;;;;53.08;20.42;;;7.10;55.90;;;;;;4952111;28;20046;-83
2023/03/04 09:03:29;;;;;;;54.38;20.52;;;7.20;56.00;;;;;;4956575;28;20059;-82
2023/03/04 09:05:57;;;;;;;55.08;20.85;;;7.10;55.90;;;;;;4949563;28;20414;-82
2023/03/04 09:08:24;;;;;;;53.28;19.95;;;7.10;55.80;;;;;;4953771;28;20059;-83
2023/03/04 09:10:53;;;;;;;46.60;17.65;;;7.20;55.80;;;;;;4940085;28;20051;-82
2023/03/04 09:13:20;;;;;;;48.83;19.70;;;7.20;55.80;;;;;;4958303;28;20054;-83
2023/03/04 09:15:49;;;;;;;62.42;18.73;;;7.30;55.90;;;;;;4960845;28;20065;-82
2023/03/04 09:18:16;;;;;;;49.97;17.75;;;7.30;55.90;;;;;;4953161;28;20059;-83
2023/03/04 09:20:46;;;;;;;50.83;16.80;;;7.30;55.90;;;;;;4952222;28;20051;-82
2023/03/04 09:23:14;;;;;;;40.08;15.55;;;7.30;55.90;;;;;;4954631;28;20063;-83
2023/03/04 09:25:43;;;;;;;38.95;15.63;;;7.30;55.90;;;;;;4954172;28;20137;-82
2023/03/04 09:28:11;;;;;;;35.20;14.80;;;7.40;56.00;;;;;;4937475;28;20056;-83
2023/03/04 09:30:39;;;;;;;51.75;17.17;;;7.40;56.00;;;;;;4947868;28;20043;-83
2023/03/04 09:33:06;;;;;;;42.58;14.55;;;7.40;56.00;;;;;;4959261;28;20506;-82
2023/03/04 09:35:34;;;;;;;44.70;17.33;;;7.50;56.00;;;;;;4961033;28;20069;-82
2023/03/04 09:38:03;;;;;;;37.58;15.13;;;7.50;56.00;;;;;;4959745;28;20050;-83
2023/03/04 09:40:35;;;;;;;48.08;15.23;;;7.50;55.90;;;;;;4949542;28;20406;-83
2023/03/04 09:43:06;;;;;;;37.03;13.07;;;7.50;55.90;;;;;;4957113;28;20070;-82
2023/03/04 09:45:38;;;;;;;34.47;13.15;;;7.60;55.80;;;;;;4958491;28;20055;-82
2023/03/04 09:48:06;;;;;;;63.25;32.65;;;7.50;55.70;;;;;;4951920;28;20513;-82
2023/03/04 09:50:39;;;;;;;150.15;66.78;;;7.60;55.70;;;;;;4954770;28;20058;-83
2023/03/04 09:53:19;;;;;;;133.35;59.17;;;7.60;55.70;;;;;;4955504;28;20511;-83
2023/03/04 09:55:52;;;;;;;176.88;83.25;;;7.60;55.60;;;;;;4964977;28;20051;-82
2023/03/04 09:58:34;;;;;;;210.02;98.55;;;7.60;55.70;;;;;;4952638;28;20506;-82
2023/03/04 10:01:07;;;;;;;411.45;225.82;;;7.70;55.80;;;;;;4960014;28;20050;-83
2023/03/04 10:03:42;;;;;;;209.70;107.03;;;7.70;55.90;;;;;;4958513;28;20514;-83
2023/03/04 10:06:12;;;;;;;281.83;125.28;;;7.70;56.00;;;;;;4950096;28;20085;-82
2023/03/04 10:08:52;;;;;;;115.13;44.70;;;7.80;56.00;;;;;;4958951;28;20419;-83
2023/03/04 10:11:25;;;;;;;112.85;44.50;;;7.80;55.60;;;;;;4956492;28;20487;-82
2023/03/04 10:14:11;;;;;;;63.67;24.35;;;7.90;55.70;;;;;;4961327;28;20499;-82
2023/03/04 10:16:42;;;;;;;67.82;23.35;;;7.90;55.80;;;;;;4960613;28;20545;-82
2023/03/04 10:19:23;;;;;;;51.20;17.40;;;7.90;55.70;;;;;;4960286;28;20058;-82
2023/03/04 10:21:52;;;;;;;30.60;9.02;;;7.90;55.70;;;;;;4951702;28;20077;-83
2023/03/04 10:24:23;;;;;;;23.63;7.78;;;8.00;55.60;;;;;;4945242;28;20065;-83
2023/03/04 10:26:54;;;;;;;18.02;6.40;;;8.00;55.70;;;;;;4946128;28;20070;-83
2023/03/04 10:29:24;;;;;;;23.50;6.28;;;8.00;55.80;;;;;;4941950;28;20069;-82
2023/03/04 10:31:54;;;;;;;23.17;6.88;;;8.10;55.90;;;;;;4948032;28;20051;-83
2023/03/04 10:34:22;;;;;;;22.60;6.60;;;8.10;55.90;;;;;;4947553;28;20055;-83
2023/03/04 10:36:56;;;;;;;21.02;7.43;;;8.10;55.80;;;;;;4947607;28;20511;-83
2023/03/04 10:39:28;;;;;;;16.58;6.72;;;8.20;56.00;;;;;;4951850;28;21480;-83
2023/03/04 10:41:59;;;;;;;20.00;7.50;;;8.30;55.90;;;;;;4958965;28;20070;-83
2023/03/04 10:44:27;;;;;;;26.70;6.65;;;8.40;55.80;;;;;;4954660;28;20504;-82
2023/03/04 10:46:56;;;;;;;24.55;7.30;;;8.40;55.40;;;;;;4949090;28;20058;-83
2023/03/04 10:49:24;;;;;;;15.50;5.97;;;8.50;55.30;;;;;;4948457;28;20076;-82
2023/03/04 10:51:54;;;;;;;17.35;6.20;;;8.60;55.20;;;;;;4946566;28;20047;-83
2023/03/04 10:54:29;;;;;;;13.50;5.70;;;8.60;54.90;;;;;;4945934;28;20070;-83
2023/03/04 10:57:00;;;;;;;18.27;6.57;;;8.70;54.70;;;;;;4947012;28;20055;-82
2023/03/04 10:59:44;;;;;;;17.77;6.53;;;8.70;54.60;;;;;;4955471;28;20062;-83
2023/03/04 11:02:17;;;;;;;20.40;6.68;;;8.70;54.50;;;;;;4954039;28;20559;-83
2023/03/04 11:04:51;;;;;;;18.08;7.90;;;8.80;54.50;;;;;;4957374;28;20065;-83
2023/03/04 11:07:19;;;;;;;19.63;10.00;;;8.80;54.20;;;;;;4950861;28;20055;-83
2023/03/04 11:09:48;;;;;;;21.90;9.48;;;8.80;54.50;;;;;;4944380;28;20058;-84
2023/03/04 11:12:18;;;;;;;18.80;8.65;;;8.80;54.10;;;;;;4958991;28;20054;-84
2023/03/04 11:14:48;;;;;;;17.13;7.75;;;8.80;54.20;;;;;;4956706;28;20410;-81
2023/03/04 11:17:24;;;;;;;19.35;7.30;;;8.90;54.20;;;;;;4948689;28;20055;-83
2023/03/04 11:19:57;;;;;;;16.88;6.40;;;8.90;54.20;;;;;;4945347;28;20058;-83
2023/03/04 11:22:25;;;;;;;21.83;6.30;;;8.90;54.10;;;;;;4953922;28;20058;-83
2023/03/04 11:24:59;;;;;;;14.07;5.95;;;8.90;54.20;;;;;;4965314;28;20059;-82
2023/03/04 11:27:36;;;;;;;15.20;6.72;;;8.90;54.30;;;;;;4961143;28;20504;-83
2023/03/04 11:30:19;;;;;;;14.88;7.35;;;8.90;54.20;;;;;;4953789;28;20410;-82
2023/03/04 11:32:51;;;;;;;20.60;8.60;;;8.90;54.20;;;;;;4958372;28;20077;-82
2023/03/04 11:35:26;;;;;;;21.25;8.48;;;8.90;54.20;;;;;;4953606;28;20490;-83
2023/03/04 11:38:01;;;;;;;21.13;8.35;;;8.90;54.00;;;;;;4955932;28;20323;-85
2023/03/04 11:40:36;;;;;;;18.40;9.50;;;8.90;54.20;;;;;;4951857;28;20507;-85
2023/03/04 11:43:09;;;;;;;19.83;8.90;;;8.90;54.60;;;;;;4952789;28;20518;-84
2023/03/04 11:45:52;;;;;;;14.38;7.38;;;8.90;54.00;;;;;;4953986;28;20509;-83
2023/03/04 11:48:30;;;;;;;17.92;7.57;;;8.90;54.20;;;;;;4964248;28;20047;-82
2023/03/04 11:51:00;;;;;;;26.52;10.80;;;9.00;54.30;;;;;;4959516;28;20491;-83
2023/03/04 11:53:43;;;;;;;27.17;14.75;;;9.00;54.40;;;;;;4958544;28;20125;-83
2023/03/04 11:56:24;;;;;;;25.50;13.05;;;9.00;54.30;;;;;;4960841;28;20059;-83
2023/03/04 11:59:06;;;;;;;22.25;11.65;;;9.10;54.30;;;;;;4958183;28;20047;-83
2023/03/04 12:01:44;;;;;;;19.70;9.38;;;9.10;54.40;;;;;;4959625;28;20055;-82
2023/03/04 12:04:24;;;;;;;17.35;8.38;;;9.10;54.40;;;;;;4959328;28;20521;-82
2023/03/04 12:07:03;;;;;;;13.32;6.35;;;9.10;54.30;;;;;;4953158;28;20495;-83
2023/03/04 12:09:40;;;;;;;16.00;5.00;;;9.20;54.20;;;;;;4959914;28;20059;-83
2023/03/04 12:12:36;;;;;;;7.97;4.28;;;9.20;54.00;;;;;;4957647;28;20155;-83
2023/03/04 12:15:14;;;;;;;10.65;4.00;;;9.20;53.90;;;;;;4944815;28;20067;-82
2023/03/04 12:18:06;;;;;;;13.35;4.70;;;9.30;54.00;;;;;;4960554;28;20066;-82
2023/03/04 12:20:44;;;;;;;10.82;4.78;;;9.30;53.90;;;;;;4960583;28;20094;-82
2023/03/04 12:23:26;;;;;;;13.60;5.85;;;9.30;53.80;;;;;;4956333;28;20050;-83
2023/03/04 12:26:00;;;;;;;10.48;5.47;;;9.30;54.00;;;;;;4961340;28;20062;-82
2023/03/04 12:28:42;;;;;;;;;;;9.30;54.10;;;;;;4962031;28;20063;-82
2023/03/04 12:31:32;;;;;;;16.00;5.60;;;9.40;54.10;;;;;;4956905;28;20275;-82
2023/03/04 12:34:28;;;;;;;17.33;5.63;;;9.40;53.90;;;;;;4954772;28;20066;-83
2023/03/04 12:37:09;;;;;;;12.98;5.00;;;9.40;53.90;;;;;;4952108;28;21332;-84
2023/03/04 12:39:41;;;;;;;14.90;4.90;;;9.40;53.90;;;;;;4958066;28;20057;-83
2023/03/04 12:42:23;;;;;;;11.30;5.38;;;9.40;53.80;;;;;;4959054;28;20430;-83
2023/03/04 12:45:00;;;;;;;12.20;4.30;;;9.30;53.90;;;;;;4948150;28;20062;-83
2023/03/04 12:47:38;;;;;;;8.80;4.07;;;9.40;53.90;;;;;;4952492;28;20063;-83